Time;durP1;ratioP1;P1;durP2;ratioP2;P2;SDS_P1;SDS_P2;PMS_P1;PMS_P2;Temp;Humidity;BMP_temperature;BMP_pressure;BME280_temperature;BME280_humidity;BME280_pressure;Samples;Min_cycle;Max_cycle;Signal;HPM_P1;HPM_P2
2021/03/21 00:00:10;;;;;;;8.050001;4.75;;;;;;;-1.85;91.50391;95800.42;;;;
2021/03/21 00:01:22;;;;;;;8.050001;4.75;;;;;;;-1.85;91.50391;95800.42;;;;
2021/03/21 00:02:23;;;;;;;8.050001;4.75;;;;;;;-1.85;91.50391;95800.42;;;;
2021/03/21 00:03:24;;;;;;;8.050001;4.75;;;;;;;-1.85;91.50391;95800.42;;;;
2021/03/21 00:04:24;;;;;;;6.65;4.8;;;;;;;-1.83;91.67383;95797.56;;;;
2021/03/21 00:05:25;;;;;;;6.65;4.8;;;;;;;-1.83;91.67383;95797.56;;;;
2021/03/21 00:06:26;;;;;;;6.65;4.8;;;;;;;-1.83;91.67383;95797.56;;;;
2021/03/21 00:07:27;;;;;;;6.65;4.8;;;;;;;-1.83;91.67383;95797.56;;;;
2021/03/21 00:08:27;;;;;;;6.65;4.8;;;;;;;-1.83;91.67383;95797.56;;;;
2021/03/21 00:09:29;;;;;;;6.65;4.8;;;;;;;-1.83;91.67383;95797.56;;;;
2021/03/21 00:10:30;;;;;;;6.65;4.8;;;;;;;-1.83;91.67383;95797.56;;;;
2021/03/21 00:11:32;;;;;;;6.65;4.8;;;;;;;-1.83;91.67383;95797.56;;;;
2021/03/21 00:12:33;;;;;;;6.65;4.8;;;;;;;-1.83;91.67383;95797.56;;;;
2021/03/21 00:13:33;;;;;;;6.65;4.8;;;;;;;-1.83;91.67383;95797.56;;;;
2021/03/21 00:14:35;;;;;;;6.65;4.8;;;;;;;-1.83;91.67383;95797.56;;;;
2021/03/21 00:15:36;;;;;;;8.55;4.85;;;;;;;-1.8;91.87598;95801.74;;;;
2021/03/21 00:16:36;;;;;;;8.55;4.85;;;;;;;-1.8;91.87598;95801.74;;;;
2021/03/21 00:17:37;;;;;;;8.55;4.85;;;;;;;-1.8;91.87598;95801.74;;;;
2021/03/21 00:18:37;;;;;;;8.55;4.85;;;;;;;-1.8;91.87598;95801.74;;;;
2021/03/21 00:19:40;;;;;;;8.55;4.85;;;;;;;-1.8;91.87598;95801.74;;;;
2021/03/21 00:20:41;;;;;;;8.55;4.85;;;;;;;-1.8;91.87598;95801.74;;;;
2021/03/21 00:21:42;;;;;;;8.55;4.85;;;;;;;-1.8;91.87598;95801.74;;;;
2021/03/21 00:22:43;;;;;;;8.55;4.85;;;;;;;-1.8;91.87598;95801.74;;;;
2021/03/21 00:23:43;;;;;;;8.55;4.85;;;;;;;-1.8;91.87598;95801.74;;;;
2021/03/21 00:24:44;;;;;;;8.55;4.85;;;;;;;-1.8;91.87598;95801.74;;;;
2021/03/21 00:25:45;;;;;;;6.65;4.75;;;;;;;-1.77;92.10156;95787.72;;;;
2021/03/21 00:26:46;;;;;;;6.65;4.75;;;;;;;-1.77;92.10156;95787.72;;;;
2021/03/21 00:27:46;;;;;;;6.65;4.75;;;;;;;-1.77;92.10156;95787.72;;;;
2021/03/21 00:28:47;;;;;;;6.65;4.75;;;;;;;-1.77;92.10156;95787.72;;;;
2021/03/21 00:29:49;;;;;;;6.65;4.75;;;;;;;-1.77;92.10156;95787.72;;;;
2021/03/21 00:30:49;;;;;;;6.65;4.75;;;;;;;-1.77;92.10156;95787.72;;;;
2021/03/21 00:31:51;;;;;;;6.65;4.75;;;;;;;-1.77;92.10156;95787.72;;;;
2021/03/21 00:32:52;;;;;;;6.65;4.75;;;;;;;-1.77;92.10156;95787.72;;;;
2021/03/21 00:33:53;;;;;;;6.65;4.75;;;;;;;-1.77;92.10156;95787.72;;;;
2021/03/21 00:34:53;;;;;;;6.65;4.75;;;;;;;-1.77;92.10156;95787.72;;;;
2021/03/21 00:35:54;;;;;;;6.65;4.75;;;;;;;-1.77;92.10156;95787.72;;;;
2021/03/21 00:36:55;;;;;;;6.7;4.85;;;;;;;-1.75;92.11328;95789.31;;;;
2021/03/21 00:37:55;;;;;;;6.7;4.85;;;;;;;-1.75;92.11328;95789.31;;;;
2021/03/21 00:38:58;;;;;;;6.7;4.85;;;;;;;-1.75;92.11328;95789.31;;;;
2021/03/21 00:39:59;;;;;;;6.7;4.85;;;;;;;-1.75;92.11328;95789.31;;;;
2021/03/21 00:40:59;;;;;;;6.7;4.85;;;;;;;-1.75;92.11328;95789.31;;;;
2021/03/21 00:42:01;;;;;;;6.7;4.85;;;;;;;-1.75;92.11328;95789.31;;;;
2021/03/21 00:43:02;;;;;;;6.7;4.85;;;;;;;-1.75;92.11328;95789.31;;;;
2021/03/21 00:44:03;;;;;;;6.7;4.85;;;;;;;-1.75;92.11328;95789.31;;;;
2021/03/21 00:45:04;;;;;;;6.7;4.85;;;;;;;-1.75;92.11328;95789.31;;;;
2021/03/21 00:46:07;;;;;;;6.7;4.85;;;;;;;-1.75;92.11328;95789.31;;;;
2021/03/21 00:47:08;;;;;;;6.65;4.400001;;;;;;;-1.75;92.22949;95783.12;;;;
2021/03/21 00:48:09;;;;;;;6.65;4.400001;;;;;;;-1.75;92.22949;95783.12;;;;
2021/03/21 00:49:12;;;;;;;6.65;4.400001;;;;;;;-1.75;92.22949;95783.12;;;;
2021/03/21 00:50:12;;;;;;;6.65;4.400001;;;;;;;-1.75;92.22949;95783.12;;;;
2021/03/21 00:51:19;;;;;;;6.65;4.400001;;;;;;;-1.75;92.22949;95783.12;;;;
2021/03/21 00:52:19;;;;;;;6.65;4.400001;;;;;;;-1.75;92.22949;95783.12;;;;
2021/03/21 00:53:20;;;;;;;6.65;4.400001;;;;;;;-1.75;92.22949;95783.12;;;;
2021/03/21 00:54:21;;;;;;;6.65;4.400001;;;;;;;-1.75;92.22949;95783.12;;;;
2021/03/21 00:55:22;;;;;;;6.65;4.400001;;;;;;;-1.75;92.22949;95783.12;;;;
2021/03/21 00:56:23;;;;;;;6.65;4.400001;;;;;;;-1.75;92.22949;95783.12;;;;
2021/03/21 00:57:29;;;;;;;6.8;4.550001;;;;;;;-1.73;92.55176;95763.53;;;;
2021/03/21 00:58:30;;;;;;;6.8;4.550001;;;;;;;-1.73;92.55176;95763.53;;;;
2021/03/21 00:59:31;;;;;;;6.8;4.550001;;;;;;;-1.73;92.55176;95763.53;;;;
2021/03/21 01:00:31;;;;;;;6.8;4.550001;;;;;;;-1.73;92.55176;95763.53;;;;
2021/03/21 01:01:35;;;;;;;6.8;4.550001;;;;;;;-1.73;92.55176;95763.53;;;;
2021/03/21 01:02:36;;;;;;;6.8;4.550001;;;;;;;-1.73;92.55176;95763.53;;;;
2021/03/21 01:03:36;;;;;;;6.8;4.550001;;;;;;;-1.73;92.55176;95763.53;;;;
2021/03/21 01:04:37;;;;;;;6.8;4.550001;;;;;;;-1.73;92.55176;95763.53;;;;
2021/03/21 01:05:37;;;;;;;6.8;4.550001;;;;;;;-1.73;92.55176;95763.53;;;;
2021/03/21 01:06:40;;;;;;;6.8;4.550001;;;;;;;-1.73;92.55176;95763.53;;;;
2021/03/21 01:07:42;;;;;;;6.8;4.550001;;;;;;;-1.73;92.55176;95763.53;;;;
2021/03/21 01:08:42;;;;;;;7.15;4.7;;;;;;;-1.63;92.62891;95759.41;;;;
2021/03/21 01:09:43;;;;;;;7.15;4.7;;;;;;;-1.63;92.62891;95759.41;;;;
2021/03/21 01:10:44;;;;;;;7.15;4.7;;;;;;;-1.63;92.62891;95759.41;;;;
2021/03/21 01:11:45;;;;;;;7.15;4.7;;;;;;;-1.63;92.62891;95759.41;;;;
2021/03/21 01:12:45;;;;;;;7.15;4.7;;;;;;;-1.63;92.62891;95759.41;;;;
2021/03/21 01:13:46;;;;;;;7.15;4.7;;;;;;;-1.63;92.62891;95759.41;;;;
2021/03/21 01:14:46;;;;;;;7.15;4.7;;;;;;;-1.63;92.62891;95759.41;;;;
2021/03/21 01:15:47;;;;;;;7.15;4.7;;;;;;;-1.63;92.62891;95759.41;;;;
2021/03/21 01:16:48;;;;;;;7.15;4.7;;;;;;;-1.63;92.62891;95759.41;;;;
2021/03/21 01:17:49;;;;;;;7.15;4.7;;;;;;;-1.63;92.62891;95759.41;;;;
2021/03/21 01:18:51;;;;;;;6.199999;4.6;;;;;;;-1.57;92.49414;95752.69;;;;
2021/03/21 01:19:53;;;;;;;6.199999;4.6;;;;;;;-1.57;92.49414;95752.69;;;;
2021/03/21 01:20:53;;;;;;;6.199999;4.6;;;;;;;-1.57;92.49414;95752.69;;;;
2021/03/21 01:21:54;;;;;;;6.199999;4.6;;;;;;;-1.57;92.49414;95752.69;;;;
2021/03/21 01:22:55;;;;;;;6.199999;4.6;;;;;;;-1.57;92.49414;95752.69;;;;
2021/03/21 01:23:56;;;;;;;6.199999;4.6;;;;;;;-1.57;92.49414;95752.69;;;;
2021/03/21 01:24:57;;;;;;;6.199999;4.6;;;;;;;-1.57;92.49414;95752.69;;;;
2021/03/21 01:25:57;;;;;;;6.199999;4.6;;;;;;;-1.57;92.49414;95752.69;;;;
2021/03/21 01:26:58;;;;;;;6.199999;4.6;;;;;;;-1.57;92.49414;95752.69;;;;
2021/03/21 01:27:58;;;;;;;6.199999;4.6;;;;;;;-1.57;92.49414;95752.69;;;;
2021/03/21 01:28:59;;;;;;;6.199999;4.6;;;;;;;-1.57;92.49414;95752.69;;;;
2021/03/21 01:29:59;;;;;;;6.5;4.550001;;;;;;;-1.54;92.36523;95746.23;;;;
2021/03/21 01:31:00;;;;;;;6.5;4.550001;;;;;;;-1.54;92.36523;95746.23;;;;
2021/03/21 01:32:07;;;;;;;6.5;4.550001;;;;;;;-1.54;92.36523;95746.23;;;;
2021/03/21 01:33:08;;;;;;;6.5;4.550001;;;;;;;-1.54;92.36523;95746.23;;;;
2021/03/21 01:34:09;;;;;;;6.5;4.550001;;;;;;;-1.54;92.36523;95746.23;;;;
2021/03/21 01:35:09;;;;;;;6.5;4.550001;;;;;;;-1.54;92.36523;95746.23;;;;
2021/03/21 01:36:12;;;;;;;6.5;4.550001;;;;;;;-1.54;92.36523;95746.23;;;;
2021/03/21 01:37:15;;;;;;;6.5;4.550001;;;;;;;-1.54;92.36523;95746.23;;;;
2021/03/21 01:38:16;;;;;;;6.5;4.550001;;;;;;;-1.54;92.36523;95746.23;;;;
2021/03/21 01:39:17;;;;;;;6.5;4.550001;;;;;;;-1.54;92.36523;95746.23;;;;
2021/03/21 01:40:22;;;;;;;6.650001;4.249999;;;;;;;-1.53;92.35742;95725.42;;;;
2021/03/21 01:41:22;;;;;;;6.650001;4.249999;;;;;;;-1.53;92.35742;95725.42;;;;
2021/03/21 01:42:26;;;;;;;6.650001;4.249999;;;;;;;-1.53;92.35742;95725.42;;;;
2021/03/21 01:43:35;;;;;;;6.650001;4.249999;;;;;;;-1.53;92.35742;95725.42;;;;
2021/03/21 01:44:38;;;;;;;6.650001;4.249999;;;;;;;-1.53;92.35742;95725.42;;;;
2021/03/21 01:45:39;;;;;;;6.650001;4.249999;;;;;;;-1.53;92.35742;95725.42;;;;
2021/03/21 01:46:43;;;;;;;6.650001;4.249999;;;;;;;-1.53;92.35742;95725.42;;;;
2021/03/21 01:48:05;;;;;;;6.650001;4.249999;;;;;;;-1.53;92.35742;95725.42;;;;
2021/03/21 01:49:15;;;;;;;6.650001;4.249999;;;;;;;-1.53;92.35742;95725.42;;;;
2021/03/21 01:50:20;;;;;;;6.650001;4.249999;;;;;;;-1.53;92.35742;95725.42;;;;
2021/03/21 01:51:27;;;;;;;5.35;3.95;;;;;;;-1.52;92.35938;95709.86;;;;
2021/03/21 01:52:32;;;;;;;5.35;3.95;;;;;;;-1.52;92.35938;95709.86;;;;
2021/03/21 01:53:36;;;;;;;5.35;3.95;;;;;;;-1.52;92.35938;95709.86;;;;
2021/03/21 01:54:39;;;;;;;5.35;3.95;;;;;;;-1.52;92.35938;95709.86;;;;
2021/03/21 01:55:40;;;;;;;5.35;3.95;;;;;;;-1.52;92.35938;95709.86;;;;
2021/03/21 01:56:40;;;;;;;5.35;3.95;;;;;;;-1.52;92.35938;95709.86;;;;
2021/03/21 01:57:41;;;;;;;5.35;3.95;;;;;;;-1.52;92.35938;95709.86;;;;
2021/03/21 01:58:43;;;;;;;5.35;3.95;;;;;;;-1.52;92.35938;95709.86;;;;
2021/03/21 01:59:46;;;;;;;5.35;3.95;;;;;;;-1.52;92.35938;95709.86;;;;
2021/03/21 02:00:47;;;;;;;5.35;3.95;;;;;;;-1.52;92.35938;95709.86;;;;
2021/03/21 02:01:48;;;;;;;6.15;4.400001;;;;;;;-1.6;92.13574;95698.71;;;;
2021/03/21 02:02:50;;;;;;;6.15;4.400001;;;;;;;-1.6;92.13574;95698.71;;;;
2021/03/21 02:03:51;;;;;;;6.15;4.400001;;;;;;;-1.6;92.13574;95698.71;;;;
2021/03/21 02:04:51;;;;;;;6.15;4.400001;;;;;;;-1.6;92.13574;95698.71;;;;
2021/03/21 02:05:52;;;;;;;6.15;4.400001;;;;;;;-1.6;92.13574;95698.71;;;;
2021/03/21 02:07:01;;;;;;;6.15;4.400001;;;;;;;-1.6;92.13574;95698.71;;;;
2021/03/21 02:08:13;;;;;;;6.15;4.400001;;;;;;;-1.6;92.13574;95698.71;;;;
2021/03/21 02:09:25;;;;;;;6.15;4.400001;;;;;;;-1.6;92.13574;95698.71;;;;
2021/03/21 02:10:31;;;;;;;6.15;4.400001;;;;;;;-1.6;92.13574;95698.71;;;;
2021/03/21 02:11:38;;;;;;;6.15;4.400001;;;;;;;-1.6;92.13574;95698.71;;;;
2021/03/21 02:12:52;;;;;;;6.55;4.3;;;;;;;-1.64;92.81055;95679.74;;;;
2021/03/21 02:14:00;;;;;;;6.55;4.3;;;;;;;-1.64;92.81055;95679.74;;;;
2021/03/21 02:15:10;;;;;;;6.55;4.3;;;;;;;-1.64;92.81055;95679.74;;;;
2021/03/21 02:16:19;;;;;;;6.55;4.3;;;;;;;-1.64;92.81055;95679.74;;;;
2021/03/21 02:17:26;;;;;;;6.55;4.3;;;;;;;-1.64;92.81055;95679.74;;;;
2021/03/21 02:18:34;;;;;;;6.55;4.3;;;;;;;-1.64;92.81055;95679.74;;;;
2021/03/21 02:19:43;;;;;;;6.55;4.3;;;;;;;-1.64;92.81055;95679.74;;;;
2021/03/21 02:21:17;;;;;;;6.55;4.3;;;;;;;-1.64;92.81055;95679.74;;;;
2021/03/21 02:22:27;;;;;;;6.55;4.3;;;;;;;-1.64;92.81055;95679.74;;;;
2021/03/21 02:23:32;;;;;;;7.5;4.35;;;;;;;-1.65;92.88086;95678.49;;;;
2021/03/21 02:28:49;;;;;;;7.5;4.35;;;;;;;-1.65;92.88086;95678.49;;;;
2021/03/21 02:31:06;;;;;;;7.5;4.35;;;;;;;-1.65;92.88086;95678.49;;;;
2021/03/21 02:32:14;;;;;;;7.5;4.35;;;;;;;-1.65;92.88086;95678.49;;;;
2021/03/21 02:33:22;;;;;;;7.5;4.35;;;;;;;-1.65;92.88086;95678.49;;;;
2021/03/21 02:34:27;;;;;;;6.45;4.35;;;;;;;-1.57;93.03223;95678.56;;;;
2021/03/21 02:35:40;;;;;;;6.45;4.35;;;;;;;-1.57;93.03223;95678.56;;;;
2021/03/21 02:36:49;;;;;;;6.45;4.35;;;;;;;-1.57;93.03223;95678.56;;;;
2021/03/21 02:37:54;;;;;;;6.45;4.35;;;;;;;-1.57;93.03223;95678.56;;;;
2021/03/21 02:39:02;;;;;;;6.45;4.35;;;;;;;-1.57;93.03223;95678.56;;;;
2021/03/21 02:40:10;;;;;;;6.45;4.35;;;;;;;-1.57;93.03223;95678.56;;;;
2021/03/21 02:41:20;;;;;;;6.45;4.35;;;;;;;-1.57;93.03223;95678.56;;;;
2021/03/21 02:42:26;;;;;;;6.45;4.35;;;;;;;-1.57;93.03223;95678.56;;;;
2021/03/21 02:43:31;;;;;;;6.45;4.35;;;;;;;-1.57;93.03223;95678.56;;;;
2021/03/21 02:44:38;;;;;;;5.8;4.05;;;;;;;-1.59;92.82031;95664.23;;;;
2021/03/21 02:45:42;;;;;;;5.8;4.05;;;;;;;-1.59;92.82031;95664.23;;;;
2021/03/21 02:46:47;;;;;;;5.8;4.05;;;;;;;-1.59;92.82031;95664.23;;;;
2021/03/21 02:47:53;;;;;;;5.8;4.05;;;;;;;-1.59;92.82031;95664.23;;;;
2021/03/21 02:48:59;;;;;;;5.8;4.05;;;;;;;-1.59;92.82031;95664.23;;;;
2021/03/21 02:50:06;;;;;;;5.8;4.05;;;;;;;-1.59;92.82031;95664.23;;;;
2021/03/21 02:51:16;;;;;;;5.8;4.05;;;;;;;-1.59;92.82031;95664.23;;;;
2021/03/21 02:52:22;;;;;;;5.8;4.05;;;;;;;-1.59;92.82031;95664.23;;;;
2021/03/21 02:53:29;;;;;;;5.8;4.05;;;;;;;-1.59;92.82031;95664.23;;;;
2021/03/21 02:54:36;;;;;;;5.8;4.05;;;;;;;-1.59;92.82031;95664.23;;;;
2021/03/21 02:55:42;;;;;;;5.5;3.85;;;;;;;-1.61;93.03418;95648.08;;;;
2021/03/21 02:56:47;;;;;;;5.5;3.85;;;;;;;-1.61;93.03418;95648.08;;;;
2021/03/21 02:57:53;;;;;;;5.5;3.85;;;;;;;-1.61;93.03418;95648.08;;;;
2021/03/21 02:58:58;;;;;;;5.5;3.85;;;;;;;-1.61;93.03418;95648.08;;;;
2021/03/21 03:00:05;;;;;;;5.5;3.85;;;;;;;-1.61;93.03418;95648.08;;;;
2021/03/21 03:01:08;;;;;;;5.5;3.85;;;;;;;-1.61;93.03418;95648.08;;;;
2021/03/21 03:02:15;;;;;;;5.5;3.85;;;;;;;-1.61;93.03418;95648.08;;;;
2021/03/21 03:03:20;;;;;;;5.5;3.85;;;;;;;-1.61;93.03418;95648.08;;;;
2021/03/21 03:04:22;;;;;;;5.5;3.85;;;;;;;-1.61;93.03418;95648.08;;;;
2021/03/21 03:05:26;;;;;;;5.5;3.85;;;;;;;-1.61;93.03418;95648.08;;;;
2021/03/21 03:06:32;;;;;;;6.55;4.45;;;;;;;-1.54;93.17188;95646.06;;;;
2021/03/21 03:07:43;;;;;;;6.55;4.45;;;;;;;-1.54;93.17188;95646.06;;;;
2021/03/21 03:08:46;;;;;;;6.55;4.45;;;;;;;-1.54;93.17188;95646.06;;;;
2021/03/21 03:09:49;;;;;;;6.55;4.45;;;;;;;-1.54;93.17188;95646.06;;;;
2021/03/21 03:10:54;;;;;;;6.55;4.45;;;;;;;-1.54;93.17188;95646.06;;;;
2021/03/21 03:11:59;;;;;;;6.55;4.45;;;;;;;-1.54;93.17188;95646.06;;;;
2021/03/21 03:13:06;;;;;;;6.55;4.45;;;;;;;-1.54;93.17188;95646.06;;;;
2021/03/21 03:14:10;;;;;;;6.55;4.45;;;;;;;-1.54;93.17188;95646.06;;;;
2021/03/21 03:15:16;;;;;;;6.55;4.45;;;;;;;-1.54;93.17188;95646.06;;;;
2021/03/21 03:16:19;;;;;;;6.3;4.25;;;;;;;-1.47;92.82715;95631.22;;;;
2021/03/21 03:17:25;;;;;;;6.3;4.25;;;;;;;-1.47;92.82715;95631.22;;;;
2021/03/21 03:18:32;;;;;;;6.3;4.25;;;;;;;-1.47;92.82715;95631.22;;;;
2021/03/21 03:19:40;;;;;;;6.3;4.25;;;;;;;-1.47;92.82715;95631.22;;;;
2021/03/21 03:20:49;;;;;;;6.3;4.25;;;;;;;-1.47;92.82715;95631.22;;;;
2021/03/21 03:21:55;;;;;;;6.3;4.25;;;;;;;-1.47;92.82715;95631.22;;;;
2021/03/21 03:23:06;;;;;;;6.3;4.25;;;;;;;-1.47;92.82715;95631.22;;;;
2021/03/21 03:24:15;;;;;;;6.3;4.25;;;;;;;-1.47;92.82715;95631.22;;;;
2021/03/21 03:25:22;;;;;;;6.3;4.25;;;;;;;-1.47;92.82715;95631.22;;;;
2021/03/21 03:26:28;;;;;;;6.3;4.25;;;;;;;-1.47;92.82715;95631.22;;;;
2021/03/21 03:27:42;;;;;;;6.3;3.8;;;;;;;-1.47;92.70215;95625.44;;;;
2021/03/21 03:28:53;;;;;;;6.3;3.8;;;;;;;-1.47;92.70215;95625.44;;;;
2021/03/21 03:29:59;;;;;;;6.3;3.8;;;;;;;-1.47;92.70215;95625.44;;;;
2021/03/21 03:31:08;;;;;;;6.3;3.8;;;;;;;-1.47;92.70215;95625.44;;;;
2021/03/21 03:32:15;;;;;;;6.3;3.8;;;;;;;-1.47;92.70215;95625.44;;;;
2021/03/21 03:33:17;;;;;;;6.3;3.8;;;;;;;-1.47;92.70215;95625.44;;;;
2021/03/21 03:34:18;;;;;;;6.3;3.8;;;;;;;-1.47;92.70215;95625.44;;;;
2021/03/21 03:35:19;;;;;;;6.3;3.8;;;;;;;-1.47;92.70215;95625.44;;;;
2021/03/21 03:36:22;;;;;;;6.3;3.8;;;;;;;-1.47;92.70215;95625.44;;;;
2021/03/21 03:37:23;;;;;;;6.3;3.8;;;;;;;-1.47;92.70215;95625.44;;;;
2021/03/21 03:38:25;;;;;;;7.850001;4.3;;;;;;;-1.43;92.88672;95610.08;;;;
2021/03/21 03:39:26;;;;;;;7.850001;4.3;;;;;;;-1.43;92.88672;95610.08;;;;
2021/03/21 03:40:26;;;;;;;7.850001;4.3;;;;;;;-1.43;92.88672;95610.08;;;;
2021/03/21 03:41:27;;;;;;;7.850001;4.3;;;;;;;-1.43;92.88672;95610.08;;;;
2021/03/21 03:42:40;;;;;;;7.850001;4.3;;;;;;;-1.43;92.88672;95610.08;;;;
2021/03/21 03:43:46;;;;;;;7.850001;4.3;;;;;;;-1.43;92.88672;95610.08;;;;
2021/03/21 03:44:56;;;;;;;7.850001;4.3;;;;;;;-1.43;92.88672;95610.08;;;;
2021/03/21 03:46:05;;;;;;;7.850001;4.3;;;;;;;-1.43;92.88672;95610.08;;;;
2021/03/21 03:47:15;;;;;;;7.850001;4.3;;;;;;;-1.43;92.88672;95610.08;;;;
2021/03/21 03:48:20;;;;;;;5.450001;4.2;;;;;;;-1.49;92.72949;95605.81;;;;
2021/03/21 03:49:34;;;;;;;5.450001;4.2;;;;;;;-1.49;92.72949;95605.81;;;;
2021/03/21 03:50:46;;;;;;;5.450001;4.2;;;;;;;-1.49;92.72949;95605.81;;;;
2021/03/21 03:51:54;;;;;;;5.450001;4.2;;;;;;;-1.49;92.72949;95605.81;;;;
2021/03/21 03:53:07;;;;;;;5.450001;4.2;;;;;;;-1.49;92.72949;95605.81;;;;
2021/03/21 03:54:20;;;;;;;5.450001;4.2;;;;;;;-1.49;92.72949;95605.81;;;;
2021/03/21 03:55:27;;;;;;;5.450001;4.2;;;;;;;-1.49;92.72949;95605.81;;;;
2021/03/21 03:56:36;;;;;;;5.450001;4.2;;;;;;;-1.49;92.72949;95605.81;;;;
2021/03/21 03:57:46;;;;;;;5.450001;4.2;;;;;;;-1.49;92.72949;95605.81;;;;
2021/03/21 03:58:50;;;;;;;5.450001;4.2;;;;;;;-1.49;92.72949;95605.81;;;;
2021/03/21 04:00:04;;;;;;;5.7;4.05;;;;;;;-1.52;93.39551;95593.31;;;;
2021/03/21 04:01:16;;;;;;;5.7;4.05;;;;;;;-1.52;93.39551;95593.31;;;;
2021/03/21 04:02:31;;;;;;;5.7;4.05;;;;;;;-1.52;93.39551;95593.31;;;;
2021/03/21 04:03:42;;;;;;;5.7;4.05;;;;;;;-1.52;93.39551;95593.31;;;;
2021/03/21 04:04:49;;;;;;;5.7;4.05;;;;;;;-1.52;93.39551;95593.31;;;;
2021/03/21 04:05:56;;;;;;;5.7;4.05;;;;;;;-1.52;93.39551;95593.31;;;;
2021/03/21 04:06:59;;;;;;;5.7;4.05;;;;;;;-1.52;93.39551;95593.31;;;;
2021/03/21 04:08:11;;;;;;;5.7;4.05;;;;;;;-1.52;93.39551;95593.31;;;;
2021/03/21 04:09:19;;;;;;;5.7;4.05;;;;;;;-1.52;93.39551;95593.31;;;;
2021/03/21 04:10:25;;;;;;;6.450001;4.299999;;;;;;;-1.43;93.26758;95573.91;;;;
2021/03/21 04:11:33;;;;;;;6.450001;4.299999;;;;;;;-1.43;93.26758;95573.91;;;;
2021/03/21 04:12:40;;;;;;;6.450001;4.299999;;;;;;;-1.43;93.26758;95573.91;;;;
2021/03/21 04:13:44;;;;;;;6.450001;4.299999;;;;;;;-1.43;93.26758;95573.91;;;;
2021/03/21 04:14:50;;;;;;;6.450001;4.299999;;;;;;;-1.43;93.26758;95573.91;;;;
2021/03/21 04:15:58;;;;;;;6.450001;4.299999;;;;;;;-1.43;93.26758;95573.91;;;;
2021/03/21 04:16:59;;;;;;;6.450001;4.299999;;;;;;;-1.43;93.26758;95573.91;;;;
2021/03/21 04:18:06;;;;;;;6.450001;4.299999;;;;;;;-1.43;93.26758;95573.91;;;;
2021/03/21 04:19:13;;;;;;;6.450001;4.299999;;;;;;;-1.43;93.26758;95573.91;;;;
2021/03/21 04:20:14;;;;;;;6.450001;4.299999;;;;;;;-1.43;93.26758;95573.91;;;;
2021/03/21 04:21:20;;;;;;;5.5;4.15;;;;;;;-1.38;93.08301;95570.72;;;;
2021/03/21 04:22:28;;;;;;;5.5;4.15;;;;;;;-1.38;93.08301;95570.72;;;;
2021/03/21 04:23:34;;;;;;;5.5;4.15;;;;;;;-1.38;93.08301;95570.72;;;;
2021/03/21 04:24:38;;;;;;;5.5;4.15;;;;;;;-1.38;93.08301;95570.72;;;;
2021/03/21 04:25:48;;;;;;;5.5;4.15;;;;;;;-1.38;93.08301;95570.72;;;;
2021/03/21 04:26:54;;;;;;;5.5;4.15;;;;;;;-1.38;93.08301;95570.72;;;;
2021/03/21 04:28:01;;;;;;;5.5;4.15;;;;;;;-1.38;93.08301;95570.72;;;;
2021/03/21 04:29:07;;;;;;;5.5;4.15;;;;;;;-1.38;93.08301;95570.72;;;;
2021/03/21 04:30:16;;;;;;;5.5;4.15;;;;;;;-1.38;93.08301;95570.72;;;;
2021/03/21 04:31:20;;;;;;;5.099999;3.75;;;;;;;-1.42;93.00488;95561.83;;;;
2021/03/21 04:32:21;;;;;;;5.099999;3.75;;;;;;;-1.42;93.00488;95561.83;;;;
2021/03/21 04:33:25;;;;;;;5.099999;3.75;;;;;;;-1.42;93.00488;95561.83;;;;
2021/03/21 04:34:31;;;;;;;5.099999;3.75;;;;;;;-1.42;93.00488;95561.83;;;;
2021/03/21 04:35:34;;;;;;;5.099999;3.75;;;;;;;-1.42;93.00488;95561.83;;;;
2021/03/21 04:36:38;;;;;;;5.099999;3.75;;;;;;;-1.42;93.00488;95561.83;;;;
2021/03/21 04:37:43;;;;;;;5.099999;3.75;;;;;;;-1.42;93.00488;95561.83;;;;
2021/03/21 04:38:49;;;;;;;5.099999;3.75;;;;;;;-1.42;93.00488;95561.83;;;;
2021/03/21 04:39:53;;;;;;;5.099999;3.75;;;;;;;-1.42;93.00488;95561.83;;;;
2021/03/21 04:40:55;;;;;;;5.099999;3.75;;;;;;;-1.42;93.00488;95561.83;;;;
2021/03/21 04:41:57;;;;;;;7.5;4.1;;;;;;;-1.45;93.20313;95551.15;;;;
2021/03/21 04:43:02;;;;;;;7.5;4.1;;;;;;;-1.45;93.20313;95551.15;;;;
2021/03/21 04:44:10;;;;;;;7.5;4.1;;;;;;;-1.45;93.20313;95551.15;;;;
2021/03/21 04:45:16;;;;;;;7.5;4.1;;;;;;;-1.45;93.20313;95551.15;;;;
2021/03/21 04:46:21;;;;;;;7.5;4.1;;;;;;;-1.45;93.20313;95551.15;;;;
2021/03/21 04:47:25;;;;;;;7.5;4.1;;;;;;;-1.45;93.20313;95551.15;;;;
2021/03/21 04:48:32;;;;;;;7.5;4.1;;;;;;;-1.45;93.20313;95551.15;;;;
2021/03/21 04:49:32;;;;;;;7.5;4.1;;;;;;;-1.45;93.20313;95551.15;;;;
2021/03/21 04:50:33;;;;;;;7.5;4.1;;;;;;;-1.45;93.20313;95551.15;;;;
2021/03/21 04:51:34;;;;;;;7.5;4.1;;;;;;;-1.45;93.20313;95551.15;;;;
2021/03/21 04:52:39;;;;;;;6.450001;3.9;;;;;;;-1.47;93.44727;95548.24;;;;
2021/03/21 04:53:44;;;;;;;6.450001;3.9;;;;;;;-1.47;93.44727;95548.24;;;;
2021/03/21 04:54:50;;;;;;;6.450001;3.9;;;;;;;-1.47;93.44727;95548.24;;;;
2021/03/21 04:55:53;;;;;;;6.450001;3.9;;;;;;;-1.47;93.44727;95548.24;;;;
2021/03/21 04:56:58;;;;;;;6.450001;3.9;;;;;;;-1.47;93.44727;95548.24;;;;
2021/03/21 04:58:06;;;;;;;6.450001;3.9;;;;;;;-1.47;93.44727;95548.24;;;;
2021/03/21 04:59:14;;;;;;;6.450001;3.9;;;;;;;-1.47;93.44727;95548.24;;;;
2021/03/21 05:00:20;;;;;;;6.450001;3.9;;;;;;;-1.47;93.44727;95548.24;;;;
2021/03/21 05:01:26;;;;;;;6.450001;3.9;;;;;;;-1.47;93.44727;95548.24;;;;
2021/03/21 05:02:34;;;;;;;6.450001;3.9;;;;;;;-1.47;93.44727;95548.24;;;;
2021/03/21 05:03:36;;;;;;;6.299999;3.75;;;;;;;-1.45;93.60645;95562.16;;;;
2021/03/21 05:04:40;;;;;;;6.299999;3.75;;;;;;;-1.45;93.60645;95562.16;;;;
2021/03/21 05:05:44;;;;;;;6.299999;3.75;;;;;;;-1.45;93.60645;95562.16;;;;
2021/03/21 05:06:49;;;;;;;6.299999;3.75;;;;;;;-1.45;93.60645;95562.16;;;;
2021/03/21 05:07:55;;;;;;;6.299999;3.75;;;;;;;-1.45;93.60645;95562.16;;;;
2021/03/21 05:09:02;;;;;;;6.299999;3.75;;;;;;;-1.45;93.60645;95562.16;;;;
2021/03/21 05:10:06;;;;;;;6.299999;3.75;;;;;;;-1.45;93.60645;95562.16;;;;
2021/03/21 05:11:14;;;;;;;6.299999;3.75;;;;;;;-1.45;93.60645;95562.16;;;;
2021/03/21 05:12:17;;;;;;;6.299999;3.75;;;;;;;-1.45;93.60645;95562.16;;;;
2021/03/21 05:13:22;;;;;;;6.299999;3.75;;;;;;;-1.45;93.60645;95562.16;;;;
2021/03/21 05:14:29;;;;;;;5.55;3.85;;;;;;;-1.39;93.78418;95564.67;;;;
2021/03/21 05:15:37;;;;;;;5.55;3.85;;;;;;;-1.39;93.78418;95564.67;;;;
2021/03/21 05:16:45;;;;;;;5.55;3.85;;;;;;;-1.39;93.78418;95564.67;;;;
2021/03/21 05:17:57;;;;;;;5.55;3.85;;;;;;;-1.39;93.78418;95564.67;;;;
2021/03/21 05:19:12;;;;;;;5.55;3.85;;;;;;;-1.39;93.78418;95564.67;;;;
2021/03/21 05:20:20;;;;;;;5.55;3.85;;;;;;;-1.39;93.78418;95564.67;;;;
2021/03/21 05:21:29;;;;;;;5.55;3.85;;;;;;;-1.39;93.78418;95564.67;;;;
2021/03/21 05:22:37;;;;;;;5.55;3.85;;;;;;;-1.39;93.78418;95564.67;;;;
2021/03/21 05:23:43;;;;;;;5.55;3.85;;;;;;;-1.39;93.78418;95564.67;;;;
2021/03/21 05:24:52;;;;;;;8.349998;4.1;;;;;;;-1.36;93.85449;95565.19;;;;
2021/03/21 05:25:58;;;;;;;8.349998;4.1;;;;;;;-1.36;93.85449;95565.19;;;;
2021/03/21 05:27:04;;;;;;;8.349998;4.1;;;;;;;-1.36;93.85449;95565.19;;;;
2021/03/21 05:28:09;;;;;;;8.349998;4.1;;;;;;;-1.36;93.85449;95565.19;;;;
2021/03/21 05:29:20;;;;;;;8.349998;4.1;;;;;;;-1.36;93.85449;95565.19;;;;
2021/03/21 05:30:37;;;;;;;8.349998;4.1;;;;;;;-1.36;93.85449;95565.19;;;;
2021/03/21 05:31:39;;;;;;;8.349998;4.1;;;;;;;-1.36;93.85449;95565.19;;;;
2021/03/21 05:32:40;;;;;;;8.349998;4.1;;;;;;;-1.36;93.85449;95565.19;;;;
2021/03/21 05:33:41;;;;;;;8.349998;4.1;;;;;;;-1.36;93.85449;95565.19;;;;
2021/03/21 05:34:43;;;;;;;8.349998;4.1;;;;;;;-1.36;93.85449;95565.19;;;;
2021/03/21 05:35:46;;;;;;;5.6;4.05;;;;;;;-1.31;93.70801;95574.02;;;;
2021/03/21 05:36:46;;;;;;;5.6;4.05;;;;;;;-1.31;93.70801;95574.02;;;;
2021/03/21 05:37:59;;;;;;;5.6;4.05;;;;;;;-1.31;93.70801;95574.02;;;;
2021/03/21 05:39:22;;;;;;;5.6;4.05;;;;;;;-1.31;93.70801;95574.02;;;;
2021/03/21 05:40:33;;;;;;;5.6;4.05;;;;;;;-1.31;93.70801;95574.02;;;;
2021/03/21 05:43:03;;;;;;;5.6;4.05;;;;;;;-1.31;93.70801;95574.02;;;;
2021/03/21 05:44:30;;;;;;;5.6;4.05;;;;;;;-1.31;93.70801;95574.02;;;;
2021/03/21 05:46:03;;;;;;;5.2;3.25;;;;;;;-1.22;93.95898;95568.58;;;;
2021/03/21 05:47:25;;;;;;;5.2;3.25;;;;;;;-1.22;93.95898;95568.58;;;;
2021/03/21 05:49:16;;;;;;;5.2;3.25;;;;;;;-1.22;93.95898;95568.58;;;;
2021/03/21 05:50:35;;;;;;;5.2;3.25;;;;;;;-1.22;93.95898;95568.58;;;;
2021/03/21 05:51:53;;;;;;;5.2;3.25;;;;;;;-1.22;93.95898;95568.58;;;;
2021/03/21 05:53:07;;;;;;;5.2;3.25;;;;;;;-1.22;93.95898;95568.58;;;;
2021/03/21 05:58:29;;;;;;;4.35;3.5;;;;;;;-1.12;94.05176;95572.44;;;;
2021/03/21 05:59:41;;;;;;;4.35;3.5;;;;;;;-1.12;94.05176;95572.44;;;;
2021/03/21 06:01:15;;;;;;;4.35;3.5;;;;;;;-1.12;94.05176;95572.44;;;;
2021/03/21 06:02:32;;;;;;;4.35;3.5;;;;;;;-1.12;94.05176;95572.44;;;;
2021/03/21 06:04:17;;;;;;;4.35;3.5;;;;;;;-1.12;94.05176;95572.44;;;;
2021/03/21 06:05:56;;;;;;;4.35;3.5;;;;;;;-1.12;94.05176;95572.44;;;;
2021/03/21 06:11:20;;;;;;;4.650001;3.400001;;;;;;;-0.98;93.89648;95562.57;;;;
2021/03/21 06:12:36;;;;;;;4.650001;3.400001;;;;;;;-0.98;93.89648;95562.57;;;;
2021/03/21 06:13:49;;;;;;;4.650001;3.400001;;;;;;;-0.98;93.89648;95562.57;;;;
2021/03/21 06:15:04;;;;;;;4.650001;3.400001;;;;;;;-0.98;93.89648;95562.57;;;;
2021/03/21 06:16:45;;;;;;;4.650001;3.400001;;;;;;;-0.98;93.89648;95562.57;;;;
2021/03/21 06:18:00;;;;;;;4.15;3.15;;;;;;;-0.77;94.23047;95548.02;;;;
2021/03/21 06:20:27;;;;;;;4.15;3.15;;;;;;;-0.77;94.23047;95548.02;;;;
2021/03/21 06:25:10;;;;;;;4.15;3.15;;;;;;;-0.77;94.23047;95548.02;;;;